createdAt,value
2023-04-09T00:00:31.806Z,71
2023-04-09T00:01:31.905Z,71
2023-04-09T00:02:31.883Z,71
2023-04-09T00:03:31.983Z,71
2023-04-09T00:04:31.875Z,71
2023-04-09T00:05:31.855Z,71
2023-04-09T00:06:31.837Z,71
2023-04-09T00:07:31.826Z,71
2023-04-09T00:08:31.896Z,71
2023-04-09T00:09:31.842Z,71
2023-04-09T00:10:31.826Z,71
2023-04-09T00:11:31.828Z,71
2023-04-09T00:12:31.832Z,71
2023-04-09T00:13:39.272Z,72
2023-04-09T00:14:31.807Z,71
2023-04-09T00:15:32.143Z,71
2023-04-09T00:16:31.859Z,72
2023-04-09T00:17:31.879Z,72
2023-04-09T00:18:32.403Z,71
2023-04-09T00:19:31.790Z,72
2023-04-09T00:20:31.829Z,71
2023-04-09T00:21:31.811Z,71
2023-04-09T00:22:31.812Z,71
2023-04-09T00:23:31.795Z,71
2023-04-09T00:24:31.767Z,72
2023-04-09T00:25:31.838Z,71
2023-04-09T00:26:31.876Z,71
2023-04-09T00:27:31.829Z,71
2023-04-09T00:28:31.836Z,71
2023-04-09T00:29:31.838Z,71
2023-04-09T00:30:31.827Z,72
2023-04-09T00:31:31.860Z,72
2023-04-09T00:32:31.912Z,71
2023-04-09T00:33:31.853Z,71
2023-04-09T00:34:31.809Z,71
2023-04-09T00:35:31.840Z,70
2023-04-09T00:36:31.808Z,70
2023-04-09T00:37:31.857Z,70
2023-04-09T00:38:31.946Z,70
2023-04-09T00:39:31.820Z,70
2023-04-09T00:40:31.813Z,70
2023-04-09T00:41:31.845Z,71
2023-04-09T00:42:31.818Z,71
2023-04-09T00:43:31.843Z,71
2023-04-09T00:44:31.807Z,72
2023-04-09T00:45:31.934Z,72
2023-04-09T00:46:31.834Z,72
2023-04-09T00:47:31.838Z,71
2023-04-09T00:48:32.142Z,71
2023-04-09T00:49:31.837Z,71
2023-04-09T00:50:31.816Z,71
2023-04-09T00:51:31.823Z,71
2023-04-09T00:52:31.794Z,71
2023-04-09T00:53:31.833Z,72
2023-04-09T00:54:31.815Z,72
2023-04-09T00:55:31.818Z,72
2023-04-09T00:56:31.794Z,72
2023-04-09T00:57:31.832Z,73
2023-04-09T00:58:31.918Z,73
2023-04-09T00:59:31.830Z,72
2023-04-09T01:00:31.849Z,72
2023-04-09T01:01:32.020Z,73
2023-04-09T01:02:31.948Z,73
2023-04-09T01:03:31.933Z,73
2023-04-09T01:04:31.828Z,73
2023-04-09T01:05:31.823Z,73
2023-04-09T01:06:31.804Z,73
2023-04-09T01:07:31.821Z,73
2023-04-09T01:08:31.836Z,73
2023-04-09T01:09:31.825Z,74
2023-04-09T01:10:31.848Z,74
2023-04-09T01:11:31.820Z,74
2023-04-09T01:12:31.825Z,75
2023-04-09T01:13:31.833Z,75
2023-04-09T01:14:31.807Z,75
2023-04-09T01:15:31.822Z,75
2023-04-09T01:16:31.832Z,75
2023-04-09T01:17:31.819Z,75
2023-04-09T01:18:31.834Z,75
2023-04-09T01:19:31.824Z,75
2023-04-09T01:20:31.866Z,74
2023-04-09T01:21:31.828Z,74
2023-04-09T01:22:31.791Z,74
2023-04-09T01:23:31.796Z,73
2023-04-09T01:24:31.794Z,73
2023-04-09T01:25:31.837Z,73
2023-04-09T01:26:31.799Z,73
2023-04-09T01:27:31.798Z,72
2023-04-09T01:28:31.830Z,72
2023-04-09T01:29:31.816Z,72
2023-04-09T01:30:31.842Z,73
2023-04-09T01:31:31.859Z,73
2023-04-09T01:32:31.869Z,72
2023-04-09T01:33:31.815Z,72
2023-04-09T01:34:31.796Z,73
2023-04-09T01:35:31.803Z,73
2023-04-09T01:36:31.841Z,73
2023-04-09T01:37:31.796Z,73
2023-04-09T01:38:32.012Z,72
2023-04-09T01:39:31.827Z,72
2023-04-09T01:40:31.962Z,72
2023-04-09T01:41:31.973Z,72
2023-04-09T01:42:31.946Z,72
2023-04-09T01:43:31.915Z,73
2023-04-09T01:44:31.964Z,73
2023-04-09T01:45:31.955Z,73
2023-04-09T01:46:32.148Z,73
2023-04-09T01:47:32.009Z,73
2023-04-09T01:48:32.289Z,72
2023-04-09T01:49:31.938Z,72
2023-04-09T01:50:31.968Z,72
2023-04-09T01:51:31.976Z,72
2023-04-09T01:52:31.999Z,72
2023-04-09T01:53:31.900Z,72
2023-04-09T01:54:31.943Z,72
2023-04-09T01:55:31.941Z,72
2023-04-09T01:56:31.969Z,72
2023-04-09T01:57:31.861Z,72
2023-04-09T01:58:31.799Z,72
2023-04-09T01:59:31.815Z,72
2023-04-09T02:00:31.868Z,72
2023-04-09T02:01:31.879Z,72
2023-04-09T02:02:31.933Z,72
2023-04-09T02:03:31.896Z,72
2023-04-09T02:04:31.824Z,72
2023-04-09T02:05:31.835Z,71
2023-04-09T02:06:31.781Z,71
2023-04-09T02:07:31.886Z,71
2023-04-09T02:08:31.804Z,71
2023-04-09T02:09:31.813Z,71
2023-04-09T02:10:31.819Z,71
2023-04-09T02:11:31.805Z,71
2023-04-09T02:12:31.841Z,71
2023-04-09T02:13:31.814Z,71
2023-04-09T02:14:31.795Z,71
2023-04-09T02:15:31.874Z,71
2023-04-09T02:16:31.807Z,71
2023-04-09T02:17:31.841Z,71
2023-04-09T02:18:31.806Z,71
2023-04-09T02:19:31.832Z,71
2023-04-09T02:20:31.852Z,71
2023-04-09T02:21:31.810Z,72
2023-04-09T02:22:31.799Z,72
2023-04-09T02:23:31.816Z,72
2023-04-09T02:24:31.861Z,72
2023-04-09T02:25:31.844Z,72
2023-04-09T02:26:31.802Z,72
2023-04-09T02:27:31.799Z,72
2023-04-09T02:28:31.771Z,72
2023-04-09T02:29:31.810Z,72
2023-04-09T02:30:31.819Z,72
2023-04-09T02:31:31.828Z,72
2023-04-09T02:32:31.833Z,71
2023-04-09T02:33:31.811Z,71
2023-04-09T02:34:31.799Z,71
2023-04-09T02:35:31.850Z,71
2023-04-09T02:36:31.816Z,72
2023-04-09T02:37:31.841Z,72
2023-04-09T02:38:32.071Z,72
2023-04-09T02:39:31.839Z,72
2023-04-09T02:40:31.796Z,72
2023-04-09T02:41:31.842Z,72
2023-04-09T02:42:31.825Z,72
2023-04-09T02:43:31.802Z,72
2023-04-09T02:44:31.802Z,72
2023-04-09T02:45:31.810Z,72
2023-04-09T02:46:31.823Z,72
2023-04-09T02:47:31.787Z,72
2023-04-09T02:48:32.242Z,72
2023-04-09T02:49:31.830Z,72
2023-04-09T02:50:31.814Z,72
2023-04-09T02:51:31.788Z,72
2023-04-09T02:52:31.806Z,71
2023-04-09T02:53:31.834Z,71
2023-04-09T02:54:31.835Z,71
2023-04-09T02:55:31.809Z,71
2023-04-09T02:56:31.890Z,71
2023-04-09T02:57:33.635Z,71
2023-04-09T02:58:31.819Z,71
2023-04-09T02:59:31.802Z,71
2023-04-09T03:00:31.817Z,71
2023-04-09T03:01:31.896Z,71
2023-04-09T03:02:32.032Z,71
2023-04-09T03:03:31.903Z,71
2023-04-09T03:04:31.874Z,71
2023-04-09T03:05:31.942Z,71
2023-04-09T03:06:31.821Z,71
2023-04-09T03:07:31.809Z,70
2023-04-09T03:08:31.766Z,70
2023-04-09T03:09:31.801Z,70
2023-04-09T03:10:31.984Z,70
2023-04-09T03:11:31.970Z,70
2023-04-09T03:12:31.792Z,71
2023-04-09T03:13:31.826Z,71
2023-04-09T03:14:32.880Z,72
2023-04-09T03:15:31.990Z,72
2023-04-09T03:16:31.932Z,72
2023-04-09T03:17:31.909Z,72
2023-04-09T03:18:31.804Z,72
2023-04-09T03:19:31.785Z,73
2023-04-09T03:20:31.913Z,73
2023-04-09T03:21:31.936Z,73
2023-04-09T03:22:31.876Z,73
2023-04-09T03:23:31.943Z,73
2023-04-09T03:24:31.813Z,72
2023-04-09T03:25:31.812Z,71
2023-04-09T03:26:31.869Z,72
2023-04-09T03:27:31.837Z,72
2023-04-09T03:28:32.237Z,73
2023-04-09T03:29:31.788Z,73
2023-04-09T03:30:31.908Z,73
2023-04-09T03:31:31.791Z,73
2023-04-09T03:32:31.838Z,73
2023-04-09T03:33:31.843Z,74
2023-04-09T03:34:31.897Z,74
2023-04-09T03:35:31.855Z,73
2023-04-09T03:36:31.836Z,73
2023-04-09T03:37:31.883Z,73
2023-04-09T03:38:31.940Z,73
2023-04-09T03:39:31.964Z,74
2023-04-09T03:40:31.994Z,73
2023-04-09T03:41:31.944Z,73
2023-04-09T03:42:31.812Z,73
2023-04-09T03:43:31.827Z,70
2023-04-09T03:44:31.974Z,70
2023-04-09T03:45:31.812Z,71
2023-04-09T03:46:31.865Z,69
2023-04-09T03:47:31.924Z,69
2023-04-09T03:48:31.853Z,69
2023-04-09T03:49:31.943Z,70
2023-04-09T03:50:31.823Z,69
2023-04-09T03:51:31.793Z,67
2023-04-09T03:52:31.823Z,67
2023-04-09T03:53:31.812Z,67
2023-04-09T03:54:31.808Z,68
2023-04-09T03:55:31.776Z,67
2023-04-09T03:56:31.811Z,67
2023-04-09T03:57:31.819Z,67
2023-04-09T03:58:31.800Z,66
2023-04-09T03:59:31.784Z,65
2023-04-09T04:00:31.824Z,65
2023-04-09T04:01:31.821Z,65
2023-04-09T04:02:31.928Z,65
2023-04-09T04:03:31.996Z,65
2023-04-09T04:04:32.027Z,65
2023-04-09T04:05:31.800Z,65
2023-04-09T04:06:31.812Z,65
2023-04-09T04:07:31.811Z,65
2023-04-09T04:08:32.289Z,65
2023-04-09T04:09:31.807Z,65
2023-04-09T04:10:31.798Z,65
2023-04-09T04:11:31.789Z,65
2023-04-09T04:12:31.826Z,64
2023-04-09T04:13:31.812Z,64
2023-04-09T04:14:31.804Z,64
2023-04-09T04:15:31.785Z,64
2023-04-09T04:16:31.840Z,65
2023-04-09T04:17:31.799Z,65
2023-04-09T04:18:31.787Z,64
2023-04-09T04:19:31.811Z,64
2023-04-09T04:20:31.805Z,64
2023-04-09T04:21:31.828Z,64
2023-04-09T04:22:31.778Z,64
2023-04-09T04:23:31.820Z,64
2023-04-09T04:24:31.790Z,64
2023-04-09T04:25:31.807Z,63
2023-04-09T04:26:31.795Z,63
2023-04-09T04:27:31.825Z,64
2023-04-09T04:28:32.051Z,64
2023-04-09T04:29:31.841Z,64
2023-04-09T04:30:31.794Z,64
2023-04-09T04:31:31.832Z,64
2023-04-09T04:32:31.819Z,64
2023-04-09T04:33:31.822Z,64
2023-04-09T04:34:31.755Z,65
2023-04-09T04:35:31.926Z,64
2023-04-09T04:36:31.797Z,64
2023-04-09T04:37:31.823Z,64
2023-04-09T04:38:31.783Z,64
2023-04-09T04:39:31.856Z,64
2023-04-09T04:40:31.825Z,64
2023-04-09T04:41:31.813Z,64
2023-04-09T04:42:31.780Z,64
2023-04-09T04:43:31.797Z,64
2023-04-09T04:44:31.775Z,63
2023-04-09T04:45:31.826Z,63
2023-04-09T04:46:31.792Z,64
2023-04-09T04:47:31.826Z,63
2023-04-09T04:48:31.854Z,63
2023-04-09T04:49:31.857Z,63
2023-04-09T04:50:31.803Z,63
2023-04-09T04:51:31.796Z,63
2023-04-09T04:52:31.777Z,63
2023-04-09T04:53:31.809Z,62
2023-04-09T04:54:31.777Z,62
2023-04-09T04:55:31.810Z,61
2023-04-09T04:56:31.808Z,60
2023-04-09T04:57:31.801Z,60
2023-04-09T04:58:31.780Z,59
2023-04-09T04:59:31.802Z,58
2023-04-09T05:00:31.882Z,58
2023-04-09T05:01:31.915Z,57
2023-04-09T05:02:31.880Z,57
2023-04-09T05:03:31.906Z,57
2023-04-09T05:04:31.805Z,56
2023-04-09T05:05:31.853Z,55
2023-04-09T05:06:31.772Z,56
2023-04-09T05:07:31.783Z,56
2023-04-09T05:08:31.997Z,56
2023-04-09T05:09:31.809Z,56
2023-04-09T05:10:31.824Z,56
2023-04-09T05:11:31.803Z,56
2023-04-09T05:12:31.838Z,56
2023-04-09T05:13:31.819Z,56
2023-04-09T05:14:31.772Z,56
2023-04-09T05:15:31.793Z,56
2023-04-09T05:16:32.838Z,56
2023-04-09T05:17:31.850Z,56
2023-04-09T05:18:31.853Z,56
2023-04-09T05:19:31.766Z,56
2023-04-09T05:20:31.773Z,55
2023-04-09T05:21:31.796Z,55
2023-04-09T05:22:31.771Z,56
2023-04-09T05:23:31.795Z,56
2023-04-09T05:24:31.797Z,56
2023-04-09T05:25:31.798Z,56
2023-04-09T05:26:31.786Z,56
2023-04-09T05:27:31.787Z,56
2023-04-09T05:28:31.764Z,57
2023-04-09T05:29:31.770Z,57
2023-04-09T05:30:31.828Z,57
2023-04-09T05:31:31.820Z,57
2023-04-09T05:32:31.833Z,58
2023-04-09T05:33:31.794Z,58
2023-04-09T05:34:31.775Z,58
2023-04-09T05:35:31.798Z,57
2023-04-09T05:36:31.804Z,57
2023-04-09T05:37:31.784Z,57
2023-04-09T05:38:31.846Z,57
2023-04-09T05:39:31.807Z,57
2023-04-09T05:40:31.790Z,57
2023-04-09T05:41:31.761Z,57
2023-04-09T05:42:31.802Z,57
2023-04-09T05:43:31.794Z,57
2023-04-09T05:44:31.800Z,57
2023-04-09T05:45:31.780Z,57
2023-04-09T05:46:32.019Z,57
2023-04-09T05:47:31.784Z,58
2023-04-09T05:48:31.925Z,58
2023-04-09T05:49:31.817Z,57
2023-04-09T05:50:34.417Z,57
2023-04-09T05:51:31.799Z,58
2023-04-09T05:52:31.804Z,58
2023-04-09T05:53:31.790Z,58
2023-04-09T05:54:31.784Z,57
2023-04-09T05:55:31.988Z,58
2023-04-09T05:56:31.775Z,58
2023-04-09T05:57:31.771Z,58
2023-04-09T05:58:31.973Z,57
2023-04-09T05:59:31.782Z,58
2023-04-09T06:00:31.795Z,58
2023-04-09T06:01:31.847Z,58
2023-04-09T06:02:32.001Z,58
2023-04-09T06:03:31.916Z,58
2023-04-09T06:04:31.828Z,59
2023-04-09T06:05:31.791Z,58
2023-04-09T06:06:31.805Z,58
2023-04-09T06:07:31.804Z,58
2023-04-09T06:08:32.302Z,58
2023-04-09T06:09:31.800Z,58
2023-04-09T06:10:31.798Z,58
2023-04-09T06:11:31.789Z,58
2023-04-09T06:12:31.772Z,58
2023-04-09T06:13:31.760Z,58
2023-04-09T06:14:31.846Z,58
2023-04-09T06:15:31.799Z,58
2023-04-09T06:16:31.757Z,58
2023-04-09T06:17:31.810Z,58
2023-04-09T06:18:32.136Z,58
2023-04-09T06:19:31.793Z,58
2023-04-09T06:20:31.825Z,58
2023-04-09T06:21:31.801Z,58
2023-04-09T06:22:31.806Z,58
2023-04-09T06:23:31.794Z,59
2023-04-09T06:24:31.810Z,58
2023-04-09T06:25:31.800Z,58
2023-04-09T06:26:31.800Z,58
2023-04-09T06:27:31.782Z,58
2023-04-09T06:28:31.771Z,58
2023-04-09T06:29:31.798Z,58
2023-04-09T06:30:31.853Z,58
2023-04-09T06:31:31.840Z,58
2023-04-09T06:32:33.630Z,58
2023-04-09T06:33:31.962Z,58
2023-04-09T06:34:31.789Z,57
2023-04-09T06:35:31.824Z,58
2023-04-09T06:36:31.762Z,58
2023-04-09T06:37:31.799Z,58
2023-04-09T06:38:31.776Z,58
2023-04-09T06:39:31.801Z,58
2023-04-09T06:40:31.760Z,58
2023-04-09T06:41:31.805Z,57
2023-04-09T06:42:31.819Z,57
2023-04-09T06:43:31.786Z,57
2023-04-09T06:44:31.773Z,57
2023-04-09T06:45:31.805Z,56
2023-04-09T06:46:31.842Z,56
2023-04-09T06:47:31.797Z,56
2023-04-09T06:48:32.254Z,56
2023-04-09T06:49:31.795Z,56
2023-04-09T06:50:31.776Z,56
2023-04-09T06:51:31.817Z,56
2023-04-09T06:52:31.769Z,55
2023-04-09T06:53:31.836Z,56
2023-04-09T06:54:31.752Z,56
2023-04-09T06:55:31.782Z,56
2023-04-09T06:56:31.775Z,55
2023-04-09T06:57:31.810Z,56
2023-04-09T06:58:31.758Z,55
2023-04-09T06:59:31.781Z,55
2023-04-09T07:00:31.799Z,56
2023-04-09T07:01:31.851Z,56
2023-04-09T07:02:32.309Z,56
2023-04-09T07:03:32.160Z,56
2023-04-09T07:04:31.886Z,55
2023-04-09T07:05:31.776Z,55
2023-04-09T07:06:31.798Z,55
2023-04-09T07:07:31.776Z,55
2023-04-09T07:08:31.763Z,54
2023-04-09T07:09:31.748Z,53
2023-04-09T07:10:31.767Z,52
2023-04-09T07:11:31.762Z,52
2023-04-09T07:12:31.771Z,52
2023-04-09T07:13:31.816Z,52
2023-04-09T07:14:31.798Z,52
2023-04-09T07:15:31.791Z,52
2023-04-09T07:16:31.862Z,53
2023-04-09T07:17:31.832Z,53
2023-04-09T07:18:31.860Z,52
2023-04-09T07:19:31.798Z,52
2023-04-09T07:20:31.788Z,52
2023-04-09T07:21:31.772Z,52
2023-04-09T07:22:31.767Z,51
2023-04-09T07:23:31.802Z,52
2023-04-09T07:24:31.774Z,52
2023-04-09T07:25:31.788Z,51
2023-04-09T07:26:31.789Z,51
2023-04-09T07:27:31.781Z,50
2023-04-09T07:28:31.824Z,50
2023-04-09T07:29:31.761Z,51
2023-04-09T07:30:31.811Z,50
2023-04-09T07:31:33.383Z,50
2023-04-09T07:32:31.789Z,50
2023-04-09T07:33:31.749Z,50
2023-04-09T07:34:31.789Z,50
2023-04-09T07:35:31.887Z,50
2023-04-09T07:36:31.836Z,50
2023-04-09T07:37:31.753Z,50
2023-04-09T07:38:31.813Z,50
2023-04-09T07:39:31.745Z,50
2023-04-09T07:40:31.794Z,50
2023-04-09T07:41:31.768Z,51
2023-04-09T07:42:31.792Z,52
2023-04-09T07:43:31.751Z,51
2023-04-09T07:44:31.761Z,51
2023-04-09T07:45:31.820Z,51
2023-04-09T07:46:31.860Z,51
2023-04-09T07:47:31.766Z,51
2023-04-09T07:48:32.045Z,51
2023-04-09T07:49:31.871Z,52
2023-04-09T07:50:31.866Z,52
2023-04-09T07:51:31.792Z,52
2023-04-09T07:52:31.799Z,52
2023-04-09T07:53:31.800Z,51
2023-04-09T07:54:31.809Z,51
2023-04-09T07:55:31.778Z,51
2023-04-09T07:56:31.773Z,51
2023-04-09T07:57:31.751Z,52
2023-04-09T07:58:32.091Z,51
2023-04-09T07:59:31.875Z,51
2023-04-09T08:00:31.804Z,52
2023-04-09T08:01:31.830Z,52
2023-04-09T08:02:31.986Z,51
2023-04-09T08:03:32.103Z,50
2023-04-09T08:04:31.956Z,51
2023-04-09T08:05:31.775Z,51
2023-04-09T08:06:31.786Z,51
2023-04-09T08:07:31.869Z,51
2023-04-09T08:08:31.871Z,50
2023-04-09T08:09:31.758Z,50
2023-04-09T08:10:31.785Z,50
2023-04-09T08:11:31.798Z,51
2023-04-09T08:12:31.752Z,50
2023-04-09T08:13:31.806Z,50
2023-04-09T08:14:31.750Z,50
2023-04-09T08:15:31.804Z,50
2023-04-09T08:16:31.793Z,50
2023-04-09T08:17:31.854Z,50
2023-04-09T08:18:32.130Z,50
2023-04-09T08:19:31.824Z,50
2023-04-09T08:20:31.767Z,50
2023-04-09T08:21:31.812Z,50
2023-04-09T08:22:31.798Z,51
2023-04-09T08:23:31.798Z,50
2023-04-09T08:24:31.764Z,50
2023-04-09T08:25:31.763Z,50
2023-04-09T08:26:31.807Z,50
2023-04-09T08:27:32.839Z,50
2023-04-09T08:28:45.914Z,50
2023-04-09T08:29:49.898Z,50
2023-04-09T08:30:53.909Z,50
2023-04-09T08:31:57.984Z,50
2023-04-09T08:33:02.127Z,50
2023-04-09T08:34:05.895Z,50
2023-04-09T08:35:09.932Z,49
2023-04-09T08:36:13.926Z,50
2023-04-09T08:37:17.907Z,50
2023-04-09T08:38:21.921Z,50
2023-04-09T08:39:25.919Z,51
2023-04-09T08:40:29.907Z,50
2023-04-09T08:41:31.814Z,50
2023-04-09T08:42:31.778Z,50
2023-04-09T08:43:52.476Z,49
2023-04-09T08:44:31.767Z,50
2023-04-09T08:45:31.769Z,50
2023-04-09T08:46:31.745Z,50
2023-04-09T08:47:31.872Z,49
2023-04-09T08:48:31.982Z,49
2023-04-09T08:49:31.763Z,49
2023-04-09T08:50:31.814Z,49
2023-04-09T08:51:31.760Z,49
2023-04-09T08:52:31.764Z,49
2023-04-09T08:53:31.747Z,49
2023-04-09T08:54:31.784Z,48
2023-04-09T08:55:31.786Z,48
2023-04-09T08:56:31.764Z,48
2023-04-09T08:57:31.807Z,47
2023-04-09T08:58:31.729Z,48
2023-04-09T08:59:31.788Z,47
2023-04-09T09:00:31.861Z,47
2023-04-09T09:01:31.853Z,47
2023-04-09T09:02:31.825Z,47
2023-04-09T09:03:31.835Z,47
2023-04-09T09:04:31.798Z,46
2023-04-09T09:05:31.757Z,46
2023-04-09T09:06:31.765Z,45
2023-04-09T09:07:31.798Z,45
2023-04-09T09:08:32.154Z,45
2023-04-09T09:09:31.776Z,45
2023-04-09T09:10:31.740Z,45
2023-04-09T09:11:31.781Z,45
2023-04-09T09:12:31.745Z,44
2023-04-09T09:13:31.754Z,44
2023-04-09T09:14:31.729Z,44
2023-04-09T09:15:31.828Z,45
2023-04-09T09:16:31.787Z,44
2023-04-09T09:17:31.821Z,44
2023-04-09T09:18:32.290Z,43
2023-04-09T09:19:31.754Z,43
2023-04-09T09:20:31.753Z,43
2023-04-09T09:21:31.768Z,43
2023-04-09T09:22:31.753Z,42
2023-04-09T09:23:31.757Z,42
2023-04-09T09:24:31.768Z,42
2023-04-09T09:25:31.769Z,42
2023-04-09T09:26:31.790Z,43
2023-04-09T09:27:31.780Z,42
2023-04-09T09:28:31.951Z,41
2023-04-09T09:29:31.773Z,41
2023-04-09T09:30:31.786Z,42
2023-04-09T09:31:31.945Z,41
2023-04-09T09:32:31.792Z,42
2023-04-09T09:33:31.760Z,42
2023-04-09T09:34:31.806Z,42
2023-04-09T09:35:31.765Z,43
2023-04-09T09:36:31.779Z,44
2023-04-09T09:37:31.758Z,43
2023-04-09T09:38:32.165Z,44
2023-04-09T09:39:31.829Z,45
2023-04-09T09:40:31.776Z,44
2023-04-09T09:41:31.761Z,44
2023-04-09T09:42:31.817Z,43
2023-04-09T09:43:31.813Z,42
2023-04-09T09:44:31.903Z,42
2023-04-09T09:45:31.797Z,40
2023-04-09T09:46:31.848Z,41
2023-04-09T09:47:31.793Z,41
2023-04-09T09:48:31.750Z,42
2023-04-09T09:49:31.762Z,42
2023-04-09T09:50:31.779Z,42
2023-04-09T09:51:31.770Z,41
2023-04-09T09:52:31.758Z,40
2023-04-09T09:53:31.797Z,41
2023-04-09T09:54:31.790Z,41
2023-04-09T09:55:31.751Z,40
2023-04-09T09:56:31.802Z,41
2023-04-09T09:57:31.769Z,41
2023-04-09T09:58:31.981Z,42
2023-04-09T09:59:31.749Z,41
2023-04-09T10:00:31.736Z,41
2023-04-09T10:01:31.921Z,41
2023-04-09T10:02:31.865Z,42
2023-04-09T10:03:31.802Z,41
2023-04-09T10:04:31.831Z,41
2023-04-09T10:05:31.838Z,41
2023-04-09T10:06:31.795Z,40
2023-04-09T10:07:31.786Z,40
2023-04-09T10:08:31.884Z,39
2023-04-09T10:09:31.737Z,38
2023-04-09T10:10:31.794Z,39
2023-04-09T10:11:31.740Z,36
2023-04-09T10:12:31.753Z,37
2023-04-09T10:13:31.753Z,37
2023-04-09T10:14:31.794Z,37
2023-04-09T10:15:31.762Z,38
2023-04-09T10:16:31.836Z,39
2023-04-09T10:17:31.786Z,40
2023-04-09T10:18:32.153Z,39
2023-04-09T10:19:31.732Z,39
2023-04-09T10:20:31.736Z,38
2023-04-09T10:21:31.738Z,38
2023-04-09T10:22:31.796Z,38
2023-04-09T10:23:31.775Z,38
2023-04-09T10:24:31.779Z,38
2023-04-09T10:25:31.762Z,38
2023-04-09T10:26:31.772Z,39
2023-04-09T10:27:31.752Z,37
2023-04-09T10:28:32.284Z,37
2023-04-09T10:29:31.742Z,37
2023-04-09T10:30:31.784Z,37
2023-04-09T10:31:31.857Z,38
2023-04-09T10:32:31.800Z,37
2023-04-09T10:33:31.766Z,37
2023-04-09T10:34:31.791Z,39
2023-04-09T10:35:31.748Z,38
2023-04-09T10:36:31.766Z,40
2023-04-09T10:37:31.735Z,37
2023-04-09T10:38:31.764Z,36
2023-04-09T10:39:31.752Z,36
2023-04-09T10:40:31.745Z,35
2023-04-09T10:41:31.754Z,34
2023-04-09T10:42:32.043Z,36
2023-04-09T10:43:31.777Z,36
2023-04-09T10:44:31.791Z,36
2023-04-09T10:45:31.710Z,36
2023-04-09T10:46:31.819Z,37
2023-04-09T10:47:31.839Z,37
2023-04-09T10:48:31.745Z,37
2023-04-09T10:49:31.719Z,38
2023-04-09T10:50:31.768Z,38
2023-04-09T10:51:31.745Z,38
2023-04-09T10:52:31.768Z,38
2023-04-09T10:53:31.840Z,38
2023-04-09T10:54:31.766Z,37
2023-04-09T10:55:31.776Z,37
2023-04-09T10:56:31.772Z,37
2023-04-09T10:57:31.758Z,37
2023-04-09T10:58:31.756Z,36
2023-04-09T10:59:31.735Z,37
2023-04-09T11:00:31.770Z,37
2023-04-09T11:01:31.924Z,37
2023-04-09T11:02:31.984Z,37
2023-04-09T11:03:31.784Z,37
2023-04-09T11:04:31.791Z,37
2023-04-09T11:05:31.737Z,36
2023-04-09T11:06:31.774Z,36
2023-04-09T11:07:31.755Z,36
2023-04-09T11:08:31.933Z,36
2023-04-09T11:09:31.733Z,37
2023-04-09T11:10:31.754Z,36
2023-04-09T11:11:31.726Z,36
2023-04-09T11:12:31.739Z,36
2023-04-09T11:13:31.794Z,37
2023-04-09T11:14:31.778Z,36
2023-04-09T11:15:31.780Z,37
2023-04-09T11:16:31.810Z,35
2023-04-09T11:17:31.755Z,35
2023-04-09T11:18:32.222Z,36
2023-04-09T11:19:31.739Z,36
2023-04-09T11:20:31.719Z,35
2023-04-09T11:21:31.785Z,35
2023-04-09T11:22:31.772Z,35
2023-04-09T11:23:31.719Z,35
2023-04-09T11:24:31.760Z,33
2023-04-09T11:25:31.840Z,34
2023-04-09T11:26:31.756Z,34
2023-04-09T11:27:31.755Z,33
2023-04-09T11:28:32.214Z,32
2023-04-09T11:29:31.812Z,33
2023-04-09T11:30:31.763Z,33
2023-04-09T11:31:31.897Z,33
2023-04-09T11:32:31.843Z,34
2023-04-09T11:33:31.751Z,34
2023-04-09T11:34:31.726Z,34
2023-04-09T11:35:31.853Z,33
2023-04-09T11:36:31.746Z,33
2023-04-09T11:37:31.813Z,33
2023-04-09T11:38:31.754Z,33
2023-04-09T11:39:31.791Z,33
2023-04-09T11:40:31.754Z,33
2023-04-09T11:41:31.768Z,34
2023-04-09T11:42:31.732Z,34
2023-04-09T11:43:31.753Z,33
2023-04-09T11:44:31.765Z,33
2023-04-09T11:45:31.811Z,32
2023-04-09T11:46:31.745Z,33
2023-04-09T11:47:31.793Z,34
2023-04-09T11:48:31.773Z,33
2023-04-09T11:49:31.745Z,33
2023-04-09T11:50:31.752Z,34
2023-04-09T11:51:31.731Z,33
2023-04-09T11:52:31.742Z,34
2023-04-09T11:53:31.744Z,34
2023-04-09T11:54:31.744Z,35
2023-04-09T11:55:31.798Z,35
2023-04-09T11:56:31.741Z,35
2023-04-09T11:57:31.770Z,35
2023-04-09T11:58:31.799Z,35
2023-04-09T11:59:31.743Z,35
2023-04-09T12:00:31.748Z,35
2023-04-09T12:01:31.878Z,35
2023-04-09T12:02:31.900Z,35
2023-04-09T12:03:31.959Z,35
2023-04-09T12:04:31.793Z,35
2023-04-09T12:05:31.811Z,34
2023-04-09T12:06:31.735Z,36
2023-04-09T12:07:31.752Z,35
2023-04-09T12:08:31.721Z,34
2023-04-09T12:09:31.775Z,33
2023-04-09T12:10:31.715Z,33
2023-04-09T12:11:31.732Z,34
2023-04-09T12:12:31.719Z,34
2023-04-09T12:13:31.792Z,34
2023-04-09T12:14:31.699Z,34
2023-04-09T12:15:31.805Z,34
2023-04-09T12:16:31.764Z,34
2023-04-09T12:17:31.803Z,33
2023-04-09T12:18:32.072Z,32
2023-04-09T12:19:31.758Z,32
2023-04-09T12:20:31.763Z,34
2023-04-09T12:21:31.805Z,34
2023-04-09T12:22:31.734Z,33
2023-04-09T12:23:31.866Z,34
2023-04-09T12:24:31.747Z,34
2023-04-09T12:25:31.774Z,33
2023-04-09T12:26:31.734Z,33
2023-04-09T12:27:32.924Z,34
2023-04-09T12:28:31.770Z,34
2023-04-09T12:29:31.766Z,34
2023-04-09T12:30:31.761Z,33
2023-04-09T12:31:31.800Z,32
2023-04-09T12:32:31.756Z,32
2023-04-09T12:33:31.756Z,31
2023-04-09T12:34:31.754Z,31
2023-04-09T12:35:31.775Z,30
2023-04-09T12:36:31.719Z,30
2023-04-09T12:37:31.773Z,32
2023-04-09T12:38:31.744Z,33
2023-04-09T12:39:34.305Z,32
2023-04-09T12:40:31.770Z,32
2023-04-09T12:41:31.738Z,33
2023-04-09T12:42:31.724Z,33
2023-04-09T12:43:31.785Z,33
2023-04-09T12:44:31.740Z,33
2023-04-09T12:45:31.758Z,34
2023-04-09T12:46:31.752Z,33
2023-04-09T12:47:31.742Z,33
2023-04-09T12:48:31.870Z,33
2023-04-09T12:49:31.737Z,33
2023-04-09T12:50:31.767Z,34
2023-04-09T12:51:31.740Z,34
2023-04-09T12:52:31.723Z,35
2023-04-09T12:53:31.774Z,34
2023-04-09T12:54:31.770Z,34
2023-04-09T12:55:31.737Z,35
2023-04-09T12:56:31.777Z,35
2023-04-09T12:57:31.762Z,35
2023-04-09T12:58:31.730Z,35
2023-04-09T12:59:31.734Z,35
2023-04-09T13:00:31.718Z,36
2023-04-09T13:01:31.787Z,35
2023-04-09T13:02:31.861Z,36
2023-04-09T13:03:31.938Z,36
2023-04-09T13:04:31.919Z,35
2023-04-09T13:05:31.750Z,35
2023-04-09T13:06:31.700Z,36
2023-04-09T13:07:31.742Z,36
2023-04-09T13:08:31.716Z,36
2023-04-09T13:09:31.742Z,35
2023-04-09T13:10:31.759Z,35
2023-04-09T13:11:31.748Z,36
2023-04-09T13:12:31.727Z,36
2023-04-09T13:13:31.752Z,36
2023-04-09T13:14:31.721Z,36
2023-04-09T13:15:31.743Z,36
2023-04-09T13:16:31.780Z,36
2023-04-09T13:17:31.759Z,36
2023-04-09T13:18:31.716Z,35
2023-04-09T13:19:31.717Z,34
2023-04-09T13:20:31.785Z,35
2023-04-09T13:21:31.762Z,34
2023-04-09T13:22:31.730Z,34
2023-04-09T13:23:31.746Z,34
2023-04-09T13:24:31.731Z,33
2023-04-09T13:25:31.745Z,34
2023-04-09T13:26:31.767Z,34
2023-04-09T13:27:31.704Z,33
2023-04-09T13:28:31.693Z,33
2023-04-09T13:29:31.737Z,33
2023-04-09T13:30:31.754Z,33
2023-04-09T13:31:31.802Z,33
2023-04-09T13:32:31.736Z,34
2023-04-09T13:33:31.744Z,35
2023-04-09T13:34:31.687Z,34
2023-04-09T13:35:31.817Z,34
2023-04-09T13:36:31.760Z,35
2023-04-09T13:37:31.743Z,34
2023-04-09T13:38:32.055Z,34
2023-04-09T13:39:31.732Z,33
2023-04-09T13:40:31.692Z,33
2023-04-09T13:41:31.968Z,34
2023-04-09T13:42:31.729Z,34
2023-04-09T13:43:31.741Z,34
2023-04-09T13:44:31.686Z,35
2023-04-09T13:45:31.724Z,34
2023-04-09T13:46:31.714Z,34
2023-04-09T13:47:31.747Z,34
2023-04-09T13:48:31.974Z,34
2023-04-09T13:49:31.753Z,34
2023-04-09T13:50:31.729Z,34
2023-04-09T13:51:31.700Z,34
2023-04-09T13:52:31.702Z,34
2023-04-09T13:53:31.758Z,34
2023-04-09T13:54:31.736Z,34
2023-04-09T13:55:31.759Z,33
2023-04-09T13:56:31.714Z,33
2023-04-09T13:57:31.750Z,33
2023-04-09T13:58:31.716Z,33
2023-04-09T13:59:31.725Z,32
2023-04-09T14:00:31.747Z,33
2023-04-09T14:01:31.868Z,33
2023-04-09T14:02:31.909Z,33
2023-04-09T14:03:31.864Z,33
2023-04-09T14:04:31.747Z,35
2023-04-09T14:05:31.712Z,34
2023-04-09T14:06:31.728Z,32
2023-04-09T14:07:31.747Z,33
2023-04-09T14:08:31.718Z,34
2023-04-09T14:09:31.796Z,34
2023-04-09T14:10:31.723Z,33
2023-04-09T14:11:31.732Z,32
2023-04-09T14:12:31.706Z,33
2023-04-09T14:13:31.755Z,33
2023-04-09T14:14:31.723Z,33
2023-04-09T14:15:31.712Z,33
2023-04-09T14:16:31.872Z,34